sensor_id;sensor_type;location;lat;lon;timestamp;P1;durP1;ratioP1;P2;durP2;ratioP2
15114;SDS011;7658;51.456;7.622;2023-08-30T00:00:13;11.80;;;9.27;;
15114;SDS011;7658;51.456;7.622;2023-08-30T00:02:39;11.45;;;9.60;;
15114;SDS011;7658;51.456;7.622;2023-08-30T00:05:05;12.75;;;9.63;;
15114;SDS011;7658;51.456;7.622;2023-08-30T00:07:30;9.65;;;8.65;;
15114;SDS011;7658;51.456;7.622;2023-08-30T00:09:57;11.57;;;8.77;;
15114;SDS011;7658;51.456;7.622;2023-08-30T00:12:24;14.45;;;9.50;;
15114;SDS011;7658;51.456;7.622;2023-08-30T00:14:50;15.68;;;9.13;;
15114;SDS011;7658;51.456;7.622;2023-08-30T00:17:16;11.57;;;9.30;;
15114;SDS011;7658;51.456;7.622;2023-08-30T00:19:42;10.57;;;8.63;;
15114;SDS011;7658;51.456;7.622;2023-08-30T00:22:08;11.18;;;8.60;;
15114;SDS011;7658;51.456;7.622;2023-08-30T00:24:34;12.77;;;8.95;;
15114;SDS011;7658;51.456;7.622;2023-08-30T00:27:01;10.23;;;8.55;;
15114;SDS011;7658;51.456;7.622;2023-08-30T00:29:27;11.75;;;8.95;;
15114;SDS011;7658;51.456;7.622;2023-08-30T00:31:53;11.90;;;9.75;;
15114;SDS011;7658;51.456;7.622;2023-08-30T00:34:19;10.52;;;8.23;;
15114;SDS011;7658;51.456;7.622;2023-08-30T00:36:45;10.88;;;8.65;;
15114;SDS011;7658;51.456;7.622;2023-08-30T00:39:11;11.15;;;8.57;;
15114;SDS011;7658;51.456;7.622;2023-08-30T00:41:38;13.18;;;9.95;;
15114;SDS011;7658;51.456;7.622;2023-08-30T00:44:04;11.27;;;9.13;;
15114;SDS011;7658;51.456;7.622;2023-08-30T00:46:30;15.50;;;9.55;;
15114;SDS011;7658;51.456;7.622;2023-08-30T00:48:57;9.68;;;8.65;;
15114;SDS011;7658;51.456;7.622;2023-08-30T00:51:23;13.30;;;9.55;;
15114;SDS011;7658;51.456;7.622;2023-08-30T00:53:49;11.38;;;9.13;;
15114;SDS011;7658;51.456;7.622;2023-08-30T00:56:15;10.90;;;9.80;;
15114;SDS011;7658;51.456;7.622;2023-08-30T00:58:44;11.43;;;9.18;;
15114;SDS011;7658;51.456;7.622;2023-08-30T01:01:09;10.75;;;8.68;;
15114;SDS011;7658;51.456;7.622;2023-08-30T01:03:35;11.13;;;9.57;;
15114;SDS011;7658;51.456;7.622;2023-08-30T01:06:02;10.98;;;8.77;;
15114;SDS011;7658;51.456;7.622;2023-08-30T01:08:28;14.05;;;8.57;;
15114;SDS011;7658;51.456;7.622;2023-08-30T01:13:51;9.43;;;8.30;;
15114;SDS011;7658;51.456;7.622;2023-08-30T01:16:23;11.65;;;8.23;;
15114;SDS011;7658;51.456;7.622;2023-08-30T01:18:50;9.27;;;8.30;;
15114;SDS011;7658;51.456;7.622;2023-08-30T01:21:23;11.38;;;8.52;;
15114;SDS011;7658;51.456;7.622;2023-08-30T01:24:10;10.40;;;8.90;;
15114;SDS011;7658;51.456;7.622;2023-08-30T01:27:00;11.10;;;9.90;;
15114;SDS011;7658;51.456;7.622;2023-08-30T01:29:33;11.90;;;9.68;;
15114;SDS011;7658;51.456;7.622;2023-08-30T01:32:00;12.73;;;9.30;;
15114;SDS011;7658;51.456;7.622;2023-08-30T01:34:27;10.93;;;9.02;;
15114;SDS011;7658;51.456;7.622;2023-08-30T01:36:53;9.48;;;8.32;;
15114;SDS011;7658;51.456;7.622;2023-08-30T01:39:21;11.15;;;9.80;;
15114;SDS011;7658;51.456;7.622;2023-08-30T01:41:48;12.52;;;8.52;;
15114;SDS011;7658;51.456;7.622;2023-08-30T01:44:17;9.85;;;8.45;;
15114;SDS011;7658;51.456;7.622;2023-08-30T01:46:43;9.45;;;8.27;;
15114;SDS011;7658;51.456;7.622;2023-08-30T01:49:11;14.68;;;8.98;;
15114;SDS011;7658;51.456;7.622;2023-08-30T01:51:37;9.55;;;8.23;;
15114;SDS011;7658;51.456;7.622;2023-08-30T01:54:04;8.70;;;7.25;;
15114;SDS011;7658;51.456;7.622;2023-08-30T01:56:31;11.40;;;7.97;;
15114;SDS011;7658;51.456;7.622;2023-08-30T01:58:58;12.18;;;8.73;;
15114;SDS011;7658;51.456;7.622;2023-08-30T02:01:23;8.82;;;7.90;;
15114;SDS011;7658;51.456;7.622;2023-08-30T02:03:49;10.95;;;8.07;;
15114;SDS011;7658;51.456;7.622;2023-08-30T02:06:17;8.80;;;7.88;;
15114;SDS011;7658;51.456;7.622;2023-08-30T02:08:57;9.25;;;8.00;;
15114;SDS011;7658;51.456;7.622;2023-08-30T02:11:28;9.45;;;7.53;;
15114;SDS011;7658;51.456;7.622;2023-08-30T02:13:59;8.50;;;7.57;;
15114;SDS011;7658;51.456;7.622;2023-08-30T02:16:29;11.88;;;8.00;;
15114;SDS011;7658;51.456;7.622;2023-08-30T02:18:56;10.32;;;7.90;;
15114;SDS011;7658;51.456;7.622;2023-08-30T02:21:22;11.70;;;8.52;;
15114;SDS011;7658;51.456;7.622;2023-08-30T02:23:51;9.50;;;7.75;;
15114;SDS011;7658;51.456;7.622;2023-08-30T02:26:18;10.45;;;8.45;;
15114;SDS011;7658;51.456;7.622;2023-08-30T02:28:45;9.32;;;7.68;;
15114;SDS011;7658;51.456;7.622;2023-08-30T02:31:11;10.70;;;8.43;;
15114;SDS011;7658;51.456;7.622;2023-08-30T02:33:36;11.07;;;8.65;;
15114;SDS011;7658;51.456;7.622;2023-08-30T02:36:02;11.48;;;8.43;;
15114;SDS011;7658;51.456;7.622;2023-08-30T02:38:29;11.68;;;8.48;;
15114;SDS011;7658;51.456;7.622;2023-08-30T02:40:54;11.13;;;9.05;;
15114;SDS011;7658;51.456;7.622;2023-08-30T02:43:20;8.70;;;7.85;;
15114;SDS011;7658;51.456;7.622;2023-08-30T02:45:47;8.45;;;7.50;;
15114;SDS011;7658;51.456;7.622;2023-08-30T02:48:13;9.13;;;7.75;;
15114;SDS011;7658;51.456;7.622;2023-08-30T02:50:39;10.30;;;8.15;;
15114;SDS011;7658;51.456;7.622;2023-08-30T02:53:05;11.20;;;8.25;;
15114;SDS011;7658;51.456;7.622;2023-08-30T02:55:33;11.20;;;8.95;;
15114;SDS011;7658;51.456;7.622;2023-08-30T02:58:02;13.15;;;8.55;;
15114;SDS011;7658;51.456;7.622;2023-08-30T03:00:28;8.40;;;7.60;;
15114;SDS011;7658;51.456;7.622;2023-08-30T03:02:54;9.32;;;7.65;;
15114;SDS011;7658;51.456;7.622;2023-08-30T03:05:19;8.32;;;7.53;;
15114;SDS011;7658;51.456;7.622;2023-08-30T03:07:45;10.38;;;8.27;;
15114;SDS011;7658;51.456;7.622;2023-08-30T03:10:11;9.65;;;8.52;;
15114;SDS011;7658;51.456;7.622;2023-08-30T03:12:37;10.98;;;8.48;;
15114;SDS011;7658;51.456;7.622;2023-08-30T03:15:03;11.18;;;8.93;;
15114;SDS011;7658;51.456;7.622;2023-08-30T03:17:30;16.98;;;9.88;;
15114;SDS011;7658;51.456;7.622;2023-08-30T03:19:55;11.68;;;10.23;;
15114;SDS011;7658;51.456;7.622;2023-08-30T03:22:21;13.23;;;10.48;;
15114;SDS011;7658;51.456;7.622;2023-08-30T03:24:47;11.07;;;9.98;;
15114;SDS011;7658;51.456;7.622;2023-08-30T03:27:14;12.00;;;10.43;;
15114;SDS011;7658;51.456;7.622;2023-08-30T03:29:41;12.45;;;10.32;;
15114;SDS011;7658;51.456;7.622;2023-08-30T03:32:07;11.32;;;9.52;;
15114;SDS011;7658;51.456;7.622;2023-08-30T03:34:32;11.95;;;10.63;;
15114;SDS011;7658;51.456;7.622;2023-08-30T03:36:58;11.85;;;9.95;;
15114;SDS011;7658;51.456;7.622;2023-08-30T03:39:24;10.32;;;9.15;;
15114;SDS011;7658;51.456;7.622;2023-08-30T03:41:50;10.32;;;9.02;;
15114;SDS011;7658;51.456;7.622;2023-08-30T03:44:15;9.77;;;7.90;;
15114;SDS011;7658;51.456;7.622;2023-08-30T03:46:41;7.90;;;7.10;;
15114;SDS011;7658;51.456;7.622;2023-08-30T03:49:07;10.07;;;7.82;;
15114;SDS011;7658;51.456;7.622;2023-08-30T03:51:33;8.57;;;7.40;;
15114;SDS011;7658;51.456;7.622;2023-08-30T03:53:59;8.95;;;8.05;;
15114;SDS011;7658;51.456;7.622;2023-08-30T03:56:25;12.27;;;8.32;;
15114;SDS011;7658;51.456;7.622;2023-08-30T03:58:51;11.32;;;8.45;;
15114;SDS011;7658;51.456;7.622;2023-08-30T04:01:16;10.60;;;8.80;;
15114;SDS011;7658;51.456;7.622;2023-08-30T04:03:42;11.20;;;8.50;;
15114;SDS011;7658;51.456;7.622;2023-08-30T04:06:08;9.98;;;8.40;;
15114;SDS011;7658;51.456;7.622;2023-08-30T04:08:34;9.48;;;8.50;;
15114;SDS011;7658;51.456;7.622;2023-08-30T04:10:59;8.20;;;7.30;;
15114;SDS011;7658;51.456;7.622;2023-08-30T04:13:25;10.85;;;7.68;;
15114;SDS011;7658;51.456;7.622;2023-08-30T04:15:51;8.18;;;7.05;;
15114;SDS011;7658;51.456;7.622;2023-08-30T04:18:17;8.13;;;7.25;;
15114;SDS011;7658;51.456;7.622;2023-08-30T04:20:45;8.20;;;7.32;;
15114;SDS011;7658;51.456;7.622;2023-08-30T04:23:12;8.10;;;6.70;;
15114;SDS011;7658;51.456;7.622;2023-08-30T04:25:38;8.27;;;7.32;;
15114;SDS011;7658;51.456;7.622;2023-08-30T04:28:04;8.43;;;7.05;;
15114;SDS011;7658;51.456;7.622;2023-08-30T04:30:30;7.88;;;6.88;;
15114;SDS011;7658;51.456;7.622;2023-08-30T04:32:56;9.73;;;7.80;;
15114;SDS011;7658;51.456;7.622;2023-08-30T04:35:22;8.05;;;7.07;;
15114;SDS011;7658;51.456;7.622;2023-08-30T04:37:47;8.23;;;7.20;;
15114;SDS011;7658;51.456;7.622;2023-08-30T04:40:13;8.63;;;7.72;;
15114;SDS011;7658;51.456;7.622;2023-08-30T04:42:39;11.30;;;8.35;;
15114;SDS011;7658;51.456;7.622;2023-08-30T04:45:06;12.13;;;8.77;;
15114;SDS011;7658;51.456;7.622;2023-08-30T04:47:32;10.48;;;7.88;;
15114;SDS011;7658;51.456;7.622;2023-08-30T04:49:58;11.27;;;8.80;;
15114;SDS011;7658;51.456;7.622;2023-08-30T04:52:25;11.32;;;9.43;;
15114;SDS011;7658;51.456;7.622;2023-08-30T04:54:51;17.85;;;10.30;;
15114;SDS011;7658;51.456;7.622;2023-08-30T04:57:17;13.57;;;11.63;;
15114;SDS011;7658;51.456;7.622;2023-08-30T04:59:43;16.20;;;11.93;;
15114;SDS011;7658;51.456;7.622;2023-08-30T05:02:10;13.35;;;10.75;;
15114;SDS011;7658;51.456;7.622;2023-08-30T05:04:36;13.15;;;10.85;;
15114;SDS011;7658;51.456;7.622;2023-08-30T05:07:01;14.75;;;11.77;;
15114;SDS011;7658;51.456;7.622;2023-08-30T05:09:28;15.20;;;11.98;;
15114;SDS011;7658;51.456;7.622;2023-08-30T05:11:55;17.90;;;12.65;;
15114;SDS011;7658;51.456;7.622;2023-08-30T05:14:20;15.02;;;11.73;;
15114;SDS011;7658;51.456;7.622;2023-08-30T05:16:46;16.13;;;12.40;;
15114;SDS011;7658;51.456;7.622;2023-08-30T05:19:12;12.27;;;10.80;;
15114;SDS011;7658;51.456;7.622;2023-08-30T05:21:37;11.85;;;10.43;;
15114;SDS011;7658;51.456;7.622;2023-08-30T05:24:03;11.40;;;9.75;;
15114;SDS011;7658;51.456;7.622;2023-08-30T05:26:32;10.80;;;9.10;;
15114;SDS011;7658;51.456;7.622;2023-08-30T05:28:58;11.30;;;9.60;;
15114;SDS011;7658;51.456;7.622;2023-08-30T05:31:24;14.55;;;9.95;;
15114;SDS011;7658;51.456;7.622;2023-08-30T05:33:50;11.05;;;9.68;;
15114;SDS011;7658;51.456;7.622;2023-08-30T05:36:16;11.30;;;9.48;;
15114;SDS011;7658;51.456;7.622;2023-08-30T05:38:42;11.90;;;10.25;;
15114;SDS011;7658;51.456;7.622;2023-08-30T05:41:08;13.50;;;9.88;;
15114;SDS011;7658;51.456;7.622;2023-08-30T05:43:34;12.27;;;10.60;;
15114;SDS011;7658;51.456;7.622;2023-08-30T05:46:00;10.48;;;8.50;;
15114;SDS011;7658;51.456;7.622;2023-08-30T05:48:30;10.70;;;8.82;;
15114;SDS011;7658;51.456;7.622;2023-08-30T05:50:57;10.52;;;9.43;;
15114;SDS011;7658;51.456;7.622;2023-08-30T05:53:23;14.48;;;8.80;;
15114;SDS011;7658;51.456;7.622;2023-08-30T05:55:49;9.65;;;8.65;;
15114;SDS011;7658;51.456;7.622;2023-08-30T05:58:15;9.90;;;8.70;;
15114;SDS011;7658;51.456;7.622;2023-08-30T06:00:42;10.15;;;7.93;;
15114;SDS011;7658;51.456;7.622;2023-08-30T06:03:08;9.48;;;8.48;;
15114;SDS011;7658;51.456;7.622;2023-08-30T06:05:35;10.02;;;8.93;;
15114;SDS011;7658;51.456;7.622;2023-08-30T06:08:01;9.95;;;8.90;;
15114;SDS011;7658;51.456;7.622;2023-08-30T06:10:27;9.93;;;8.93;;
15114;SDS011;7658;51.456;7.622;2023-08-30T06:12:53;12.38;;;10.40;;
15114;SDS011;7658;51.456;7.622;2023-08-30T06:15:20;11.32;;;9.55;;
15114;SDS011;7658;51.456;7.622;2023-08-30T06:17:46;11.27;;;10.07;;
15114;SDS011;7658;51.456;7.622;2023-08-30T06:20:12;16.65;;;12.57;;
15114;SDS011;7658;51.456;7.622;2023-08-30T06:22:38;15.40;;;13.23;;
15114;SDS011;7658;51.456;7.622;2023-08-30T06:25:04;16.67;;;13.00;;
15114;SDS011;7658;51.456;7.622;2023-08-30T06:27:31;20.33;;;14.60;;
15114;SDS011;7658;51.456;7.622;2023-08-30T06:29:57;15.95;;;13.27;;
15114;SDS011;7658;51.456;7.622;2023-08-30T06:32:23;19.33;;;14.43;;
15114;SDS011;7658;51.456;7.622;2023-08-30T06:34:49;18.45;;;15.10;;
15114;SDS011;7658;51.456;7.622;2023-08-30T06:37:15;18.02;;;14.98;;
15114;SDS011;7658;51.456;7.622;2023-08-30T06:39:40;16.13;;;12.55;;
15114;SDS011;7658;51.456;7.622;2023-08-30T06:42:06;16.88;;;14.75;;
15114;SDS011;7658;51.456;7.622;2023-08-30T06:44:32;21.55;;;15.95;;
15114;SDS011;7658;51.456;7.622;2023-08-30T06:46:58;18.00;;;15.00;;
15114;SDS011;7658;51.456;7.622;2023-08-30T06:49:25;22.00;;;16.55;;
15114;SDS011;7658;51.456;7.622;2023-08-30T06:51:52;20.38;;;14.30;;
15114;SDS011;7658;51.456;7.622;2023-08-30T06:54:17;19.55;;;13.90;;
15114;SDS011;7658;51.456;7.622;2023-08-30T06:56:56;16.88;;;13.57;;
15114;SDS011;7658;51.456;7.622;2023-08-30T06:59:25;21.45;;;14.43;;
15114;SDS011;7658;51.456;7.622;2023-08-30T07:01:52;16.05;;;12.82;;
15114;SDS011;7658;51.456;7.622;2023-08-30T07:04:18;24.15;;;17.27;;
15114;SDS011;7658;51.456;7.622;2023-08-30T07:06:45;25.70;;;18.80;;
15114;SDS011;7658;51.456;7.622;2023-08-30T07:09:12;25.75;;;18.67;;
15114;SDS011;7658;51.456;7.622;2023-08-30T07:11:38;26.77;;;19.05;;
15114;SDS011;7658;51.456;7.622;2023-08-30T07:14:04;29.80;;;20.00;;
15114;SDS011;7658;51.456;7.622;2023-08-30T07:16:33;27.77;;;21.83;;
15114;SDS011;7658;51.456;7.622;2023-08-30T07:19:15;26.58;;;20.48;;
15114;SDS011;7658;51.456;7.622;2023-08-30T07:24:26;23.88;;;17.67;;
15114;SDS011;7658;51.456;7.622;2023-08-30T07:26:52;23.20;;;18.77;;
15114;SDS011;7658;51.456;7.622;2023-08-30T07:29:18;24.48;;;19.90;;
15114;SDS011;7658;51.456;7.622;2023-08-30T07:34:25;33.72;;;24.35;;
15114;SDS011;7658;51.456;7.622;2023-08-30T07:36:58;28.52;;;23.75;;
15114;SDS011;7658;51.456;7.622;2023-08-30T07:39:30;37.08;;;26.67;;
15114;SDS011;7658;51.456;7.622;2023-08-30T07:41:56;33.17;;;24.20;;
15114;SDS011;7658;51.456;7.622;2023-08-30T07:44:22;34.97;;;25.17;;
15114;SDS011;7658;51.456;7.622;2023-08-30T07:46:48;32.13;;;25.17;;
15114;SDS011;7658;51.456;7.622;2023-08-30T07:49:14;29.90;;;23.40;;
15114;SDS011;7658;51.456;7.622;2023-08-30T07:51:39;27.80;;;22.92;;
15114;SDS011;7658;51.456;7.622;2023-08-30T07:54:05;25.67;;;21.58;;
15114;SDS011;7658;51.456;7.622;2023-08-30T07:56:31;32.28;;;21.63;;
15114;SDS011;7658;51.456;7.622;2023-08-30T07:58:58;29.30;;;22.63;;
15114;SDS011;7658;51.456;7.622;2023-08-30T08:01:24;29.83;;;22.23;;
15114;SDS011;7658;51.456;7.622;2023-08-30T08:03:49;29.50;;;22.20;;
15114;SDS011;7658;51.456;7.622;2023-08-30T08:06:15;28.10;;;21.67;;
15114;SDS011;7658;51.456;7.622;2023-08-30T08:08:43;29.45;;;21.75;;
15114;SDS011;7658;51.456;7.622;2023-08-30T08:11:09;25.20;;;18.60;;
15114;SDS011;7658;51.456;7.622;2023-08-30T08:13:37;26.27;;;18.60;;
15114;SDS011;7658;51.456;7.622;2023-08-30T08:16:04;20.83;;;17.02;;
15114;SDS011;7658;51.456;7.622;2023-08-30T08:18:57;24.45;;;18.60;;
15114;SDS011;7658;51.456;7.622;2023-08-30T08:21:28;21.40;;;16.05;;
15114;SDS011;7658;51.456;7.622;2023-08-30T08:23:54;19.77;;;16.27;;
15114;SDS011;7658;51.456;7.622;2023-08-30T08:26:28;15.25;;;12.27;;
15114;SDS011;7658;51.456;7.622;2023-08-30T08:28:57;14.50;;;9.43;;
15114;SDS011;7658;51.456;7.622;2023-08-30T08:31:26;13.25;;;8.45;;
15114;SDS011;7658;51.456;7.622;2023-08-30T08:34:13;12.32;;;9.07;;
15114;SDS011;7658;51.456;7.622;2023-08-30T08:36:40;11.50;;;9.13;;
15114;SDS011;7658;51.456;7.622;2023-08-30T08:39:10;11.30;;;7.72;;
15114;SDS011;7658;51.456;7.622;2023-08-30T08:44:05;9.50;;;6.75;;
15114;SDS011;7658;51.456;7.622;2023-08-30T08:46:39;9.48;;;6.53;;
15114;SDS011;7658;51.456;7.622;2023-08-30T08:49:11;13.15;;;6.70;;
15114;SDS011;7658;51.456;7.622;2023-08-30T08:51:56;9.35;;;6.47;;
15114;SDS011;7658;51.456;7.622;2023-08-30T08:54:24;8.77;;;6.93;;
15114;SDS011;7658;51.456;7.622;2023-08-30T08:57:50;9.32;;;7.10;;
15114;SDS011;7658;51.456;7.622;2023-08-30T09:03:38;14.00;;;6.82;;
15114;SDS011;7658;51.456;7.622;2023-08-30T09:06:04;9.52;;;6.65;;
15114;SDS011;7658;51.456;7.622;2023-08-30T09:08:30;9.75;;;6.07;;
15114;SDS011;7658;51.456;7.622;2023-08-30T09:10:56;10.38;;;5.88;;
15114;SDS011;7658;51.456;7.622;2023-08-30T09:13:25;8.98;;;5.90;;
15114;SDS011;7658;51.456;7.622;2023-08-30T09:15:57;11.18;;;6.20;;
15114;SDS011;7658;51.456;7.622;2023-08-30T09:18:25;11.15;;;6.25;;
15114;SDS011;7658;51.456;7.622;2023-08-30T09:21:08;7.50;;;5.15;;
15114;SDS011;7658;51.456;7.622;2023-08-30T09:23:35;6.22;;;4.80;;
15114;SDS011;7658;51.456;7.622;2023-08-30T09:26:03;8.15;;;5.20;;
15114;SDS011;7658;51.456;7.622;2023-08-30T09:28:41;7.05;;;4.95;;
15114;SDS011;7658;51.456;7.622;2023-08-30T09:32:01;7.35;;;4.70;;
15114;SDS011;7658;51.456;7.622;2023-08-30T09:34:30;7.32;;;5.28;;
15114;SDS011;7658;51.456;7.622;2023-08-30T09:36:59;9.15;;;5.40;;
15114;SDS011;7658;51.456;7.622;2023-08-30T09:39:26;7.75;;;4.75;;
15114;SDS011;7658;51.456;7.622;2023-08-30T09:41:59;6.22;;;4.50;;
15114;SDS011;7658;51.456;7.622;2023-08-30T09:44:29;6.32;;;4.57;;
15114;SDS011;7658;51.456;7.622;2023-08-30T09:47:02;6.20;;;4.57;;
15114;SDS011;7658;51.456;7.622;2023-08-30T09:49:28;6.40;;;5.10;;
15114;SDS011;7658;51.456;7.622;2023-08-30T09:52:07;8.80;;;4.60;;
15114;SDS011;7658;51.456;7.622;2023-08-30T09:54:34;7.03;;;4.72;;
15114;SDS011;7658;51.456;7.622;2023-08-30T09:57:03;6.30;;;4.85;;
15114;SDS011;7658;51.456;7.622;2023-08-30T09:59:35;6.13;;;4.38;;
15114;SDS011;7658;51.456;7.622;2023-08-30T10:02:03;6.35;;;4.28;;
15114;SDS011;7658;51.456;7.622;2023-08-30T10:04:30;8.75;;;4.78;;
15114;SDS011;7658;51.456;7.622;2023-08-30T10:06:57;7.85;;;4.60;;
15114;SDS011;7658;51.456;7.622;2023-08-30T10:09:24;9.32;;;5.22;;
15114;SDS011;7658;51.456;7.622;2023-08-30T10:15:28;6.13;;;4.22;;
15114;SDS011;7658;51.456;7.622;2023-08-30T10:18:01;6.38;;;5.32;;
15114;SDS011;7658;51.456;7.622;2023-08-30T10:21:17;7.53;;;5.47;;
15114;SDS011;7658;51.456;7.622;2023-08-30T10:23:57;7.75;;;5.10;;
15114;SDS011;7658;51.456;7.622;2023-08-30T10:27:05;6.70;;;5.13;;
15114;SDS011;7658;51.456;7.622;2023-08-30T10:29:38;6.85;;;5.45;;
15114;SDS011;7658;51.456;7.622;2023-08-30T10:39:15;10.65;;;5.70;;
15114;SDS011;7658;51.456;7.622;2023-08-30T10:43:05;6.18;;;5.03;;
15114;SDS011;7658;51.456;7.622;2023-08-30T10:45:37;7.43;;;4.95;;
15114;SDS011;7658;51.456;7.622;2023-08-30T10:48:22;6.25;;;4.90;;
15114;SDS011;7658;51.456;7.622;2023-08-30T10:51:35;7.63;;;4.63;;
15114;SDS011;7658;51.456;7.622;2023-08-30T10:54:09;9.23;;;5.03;;
15114;SDS011;7658;51.456;7.622;2023-08-30T10:56:45;7.65;;;5.22;;
15114;SDS011;7658;51.456;7.622;2023-08-30T10:59:20;8.90;;;4.45;;
15114;SDS011;7658;51.456;7.622;2023-08-30T11:01:47;9.20;;;5.28;;
15114;SDS011;7658;51.456;7.622;2023-08-30T11:04:14;11.57;;;5.45;;
15114;SDS011;7658;51.456;7.622;2023-08-30T11:06:44;11.93;;;5.70;;
15114;SDS011;7658;51.456;7.622;2023-08-30T11:09:14;6.20;;;5.25;;
15114;SDS011;7658;51.456;7.622;2023-08-30T11:11:44;8.13;;;5.28;;
15114;SDS011;7658;51.456;7.622;2023-08-30T11:14:14;8.93;;;5.25;;
15114;SDS011;7658;51.456;7.622;2023-08-30T11:16:40;6.63;;;5.18;;
15114;SDS011;7658;51.456;7.622;2023-08-30T11:19:07;8.35;;;6.60;;
15114;SDS011;7658;51.456;7.622;2023-08-30T11:21:34;7.63;;;5.70;;
15114;SDS011;7658;51.456;7.622;2023-08-30T11:24:05;9.02;;;6.90;;
15114;SDS011;7658;51.456;7.622;2023-08-30T11:26:32;10.57;;;7.18;;
15114;SDS011;7658;51.456;7.622;2023-08-30T11:29:03;11.20;;;8.27;;
15114;SDS011;7658;51.456;7.622;2023-08-30T11:31:29;11.75;;;8.65;;
15114;SDS011;7658;51.456;7.622;2023-08-30T11:33:56;12.07;;;7.60;;
15114;SDS011;7658;51.456;7.622;2023-08-30T11:36:25;9.80;;;8.80;;
15114;SDS011;7658;51.456;7.622;2023-08-30T11:38:53;13.00;;;9.18;;
15114;SDS011;7658;51.456;7.622;2023-08-30T11:41:20;11.98;;;9.80;;
15114;SDS011;7658;51.456;7.622;2023-08-30T11:43:49;14.25;;;9.90;;
15114;SDS011;7658;51.456;7.622;2023-08-30T11:46:19;11.15;;;9.55;;
15114;SDS011;7658;51.456;7.622;2023-08-30T11:48:46;15.25;;;10.13;;
15114;SDS011;7658;51.456;7.622;2023-08-30T11:51:13;10.32;;;9.23;;
15114;SDS011;7658;51.456;7.622;2023-08-30T11:53:40;10.60;;;8.93;;
15114;SDS011;7658;51.456;7.622;2023-08-30T11:56:06;11.10;;;9.05;;
15114;SDS011;7658;51.456;7.622;2023-08-30T11:58:36;10.85;;;8.85;;
15114;SDS011;7658;51.456;7.622;2023-08-30T12:01:02;10.65;;;8.40;;
15114;SDS011;7658;51.456;7.622;2023-08-30T12:03:29;10.18;;;8.23;;
15114;SDS011;7658;51.456;7.622;2023-08-30T12:05:57;10.80;;;7.65;;
15114;SDS011;7658;51.456;7.622;2023-08-30T12:08:24;9.95;;;7.45;;
15114;SDS011;7658;51.456;7.622;2023-08-30T12:10:56;13.82;;;8.02;;
15114;SDS011;7658;51.456;7.622;2023-08-30T12:13:26;10.05;;;7.38;;
15114;SDS011;7658;51.456;7.622;2023-08-30T12:15:54;10.70;;;8.63;;
15114;SDS011;7658;51.456;7.622;2023-08-30T12:18:24;12.40;;;8.50;;
15114;SDS011;7658;51.456;7.622;2023-08-30T12:20:53;13.48;;;9.23;;
15114;SDS011;7658;51.456;7.622;2023-08-30T12:23:19;12.25;;;9.07;;
15114;SDS011;7658;51.456;7.622;2023-08-30T12:26:07;10.00;;;7.97;;
15114;SDS011;7658;51.456;7.622;2023-08-30T12:28:35;13.90;;;9.65;;
15114;SDS011;7658;51.456;7.622;2023-08-30T12:31:02;12.57;;;10.02;;
15114;SDS011;7658;51.456;7.622;2023-08-30T12:33:30;12.30;;;10.43;;
15114;SDS011;7658;51.456;7.622;2023-08-30T12:35:57;15.00;;;10.48;;
15114;SDS011;7658;51.456;7.622;2023-08-30T12:38:23;19.13;;;11.70;;
15114;SDS011;7658;51.456;7.622;2023-08-30T12:40:50;13.52;;;11.68;;
15114;SDS011;7658;51.456;7.622;2023-08-30T12:43:17;15.05;;;12.55;;
15114;SDS011;7658;51.456;7.622;2023-08-30T12:45:45;16.65;;;12.45;;
15114;SDS011;7658;51.456;7.622;2023-08-30T12:48:11;21.50;;;14.32;;
15114;SDS011;7658;51.456;7.622;2023-08-30T12:50:42;16.67;;;13.27;;
15114;SDS011;7658;51.456;7.622;2023-08-30T12:53:11;17.05;;;13.57;;
15114;SDS011;7658;51.456;7.622;2023-08-30T12:55:36;19.27;;;14.23;;
15114;SDS011;7658;51.456;7.622;2023-08-30T12:58:08;19.80;;;15.13;;
15114;SDS011;7658;51.456;7.622;2023-08-30T13:00:35;19.75;;;15.30;;
15114;SDS011;7658;51.456;7.622;2023-08-30T13:03:01;20.25;;;15.02;;
15114;SDS011;7658;51.456;7.622;2023-08-30T13:05:30;21.58;;;14.98;;
15114;SDS011;7658;51.456;7.622;2023-08-30T13:07:57;19.92;;;14.15;;
15114;SDS011;7658;51.456;7.622;2023-08-30T13:10:25;17.27;;;13.90;;
15114;SDS011;7658;51.456;7.622;2023-08-30T13:12:51;21.63;;;13.70;;
15114;SDS011;7658;51.456;7.622;2023-08-30T13:15:17;14.88;;;12.07;;
15114;SDS011;7658;51.456;7.622;2023-08-30T13:17:43;15.70;;;12.82;;
15114;SDS011;7658;51.456;7.622;2023-08-30T13:20:09;13.07;;;10.00;;
15114;SDS011;7658;51.456;7.622;2023-08-30T13:22:36;9.90;;;8.50;;
15114;SDS011;7658;51.456;7.622;2023-08-30T13:25:02;10.70;;;8.23;;
15114;SDS011;7658;51.456;7.622;2023-08-30T13:27:29;10.80;;;6.50;;
15114;SDS011;7658;51.456;7.622;2023-08-30T13:29:55;9.00;;;6.13;;
15114;SDS011;7658;51.456;7.622;2023-08-30T13:32:20;6.68;;;5.88;;
15114;SDS011;7658;51.456;7.622;2023-08-30T13:34:46;7.97;;;5.82;;
15114;SDS011;7658;51.456;7.622;2023-08-30T13:37:12;11.05;;;5.88;;
15114;SDS011;7658;51.456;7.622;2023-08-30T13:39:39;8.82;;;6.45;;
15114;SDS011;7658;51.456;7.622;2023-08-30T13:42:06;7.22;;;5.68;;
15114;SDS011;7658;51.456;7.622;2023-08-30T13:44:32;6.53;;;5.72;;
15114;SDS011;7658;51.456;7.622;2023-08-30T13:46:58;6.70;;;6.00;;
15114;SDS011;7658;51.456;7.622;2023-08-30T13:49:24;8.38;;;5.82;;
15114;SDS011;7658;51.456;7.622;2023-08-30T13:51:49;6.80;;;5.63;;
15114;SDS011;7658;51.456;7.622;2023-08-30T13:54:15;6.82;;;5.30;;
15114;SDS011;7658;51.456;7.622;2023-08-30T13:56:41;5.68;;;5.07;;
15114;SDS011;7658;51.456;7.622;2023-08-30T13:59:07;7.38;;;5.95;;
15114;SDS011;7658;51.456;7.622;2023-08-30T14:01:33;7.18;;;5.40;;
15114;SDS011;7658;51.456;7.622;2023-08-30T14:04:00;7.25;;;5.22;;
15114;SDS011;7658;51.456;7.622;2023-08-30T14:06:26;5.40;;;4.82;;
15114;SDS011;7658;51.456;7.622;2023-08-30T14:08:51;6.40;;;4.45;;
15114;SDS011;7658;51.456;7.622;2023-08-30T14:11:17;6.15;;;5.15;;
15114;SDS011;7658;51.456;7.622;2023-08-30T14:13:43;5.07;;;4.65;;
15114;SDS011;7658;51.456;7.622;2023-08-30T14:16:08;5.43;;;4.93;;
15114;SDS011;7658;51.456;7.622;2023-08-30T14:18:35;7.10;;;4.90;;
15114;SDS011;7658;51.456;7.622;2023-08-30T14:21:01;5.38;;;4.70;;
15114;SDS011;7658;51.456;7.622;2023-08-30T14:23:28;5.80;;;5.18;;
15114;SDS011;7658;51.456;7.622;2023-08-30T14:25:58;6.22;;;5.15;;
15114;SDS011;7658;51.456;7.622;2023-08-30T14:28:25;5.53;;;4.60;;
15114;SDS011;7658;51.456;7.622;2023-08-30T14:30:51;6.05;;;4.97;;
15114;SDS011;7658;51.456;7.622;2023-08-30T14:33:18;6.15;;;5.53;;
15114;SDS011;7658;51.456;7.622;2023-08-30T14:35:44;6.78;;;4.95;;
15114;SDS011;7658;51.456;7.622;2023-08-30T14:38:16;7.93;;;5.65;;
15114;SDS011;7658;51.456;7.622;2023-08-30T14:47:44;8.38;;;6.55;;
15114;SDS011;7658;51.456;7.622;2023-08-30T14:50:52;10.95;;;6.65;;
15114;SDS011;7658;51.456;7.622;2023-08-30T14:53:21;14.02;;;7.82;;
15114;SDS011;7658;51.456;7.622;2023-08-30T14:55:46;8.27;;;7.03;;
15114;SDS011;7658;51.456;7.622;2023-08-30T14:58:22;9.80;;;7.10;;
15114;SDS011;7658;51.456;7.622;2023-08-30T15:00:49;7.10;;;6.40;;
15114;SDS011;7658;51.456;7.622;2023-08-30T15:03:17;8.02;;;6.35;;
15114;SDS011;7658;51.456;7.622;2023-08-30T15:05:43;11.98;;;7.32;;
15114;SDS011;7658;51.456;7.622;2023-08-30T15:08:09;6.85;;;6.15;;
15114;SDS011;7658;51.456;7.622;2023-08-30T15:10:42;9.00;;;6.45;;
15114;SDS011;7658;51.456;7.622;2023-08-30T15:13:14;12.02;;;7.63;;
15114;SDS011;7658;51.456;7.622;2023-08-30T15:15:39;10.02;;;7.88;;
15114;SDS011;7658;51.456;7.622;2023-08-30T15:18:05;10.20;;;8.00;;
15114;SDS011;7658;51.456;7.622;2023-08-30T15:20:38;10.60;;;7.82;;
15114;SDS011;7658;51.456;7.622;2023-08-30T15:23:04;11.60;;;8.90;;
15114;SDS011;7658;51.456;7.622;2023-08-30T15:25:30;9.85;;;8.82;;
15114;SDS011;7658;51.456;7.622;2023-08-30T15:27:56;10.18;;;7.80;;
15114;SDS011;7658;51.456;7.622;2023-08-30T15:30:22;12.20;;;9.10;;